sensor_id;sensor_type;location;lat;lon;timestamp;P1;durP1;ratioP1;P2;durP2;ratioP2
24383;SDS011;12504;52.870;8.798;2023-08-24T00:00:11;4.70;;;3.50;;
24383;SDS011;12504;52.870;8.798;2023-08-24T00:02:37;7.38;;;4.18;;
24383;SDS011;12504;52.870;8.798;2023-08-24T00:05:02;6.05;;;3.75;;
24383;SDS011;12504;52.870;8.798;2023-08-24T00:07:29;5.07;;;3.58;;
24383;SDS011;12504;52.870;8.798;2023-08-24T00:09:55;7.50;;;4.78;;
24383;SDS011;12504;52.870;8.798;2023-08-24T00:12:20;7.30;;;3.95;;
24383;SDS011;12504;52.870;8.798;2023-08-24T00:14:46;7.65;;;4.30;;
24383;SDS011;12504;52.870;8.798;2023-08-24T00:17:12;5.28;;;3.83;;
24383;SDS011;12504;52.870;8.798;2023-08-24T00:19:37;11.23;;;3.85;;
24383;SDS011;12504;52.870;8.798;2023-08-24T00:22:03;5.97;;;4.00;;
24383;SDS011;12504;52.870;8.798;2023-08-24T00:24:29;5.93;;;3.80;;
24383;SDS011;12504;52.870;8.798;2023-08-24T00:26:54;5.35;;;3.17;;
24383;SDS011;12504;52.870;8.798;2023-08-24T00:29:20;11.02;;;5.03;;
24383;SDS011;12504;52.870;8.798;2023-08-24T00:31:48;5.93;;;3.90;;
24383;SDS011;12504;52.870;8.798;2023-08-24T00:34:13;6.13;;;3.70;;
24383;SDS011;12504;52.870;8.798;2023-08-24T00:36:39;7.53;;;4.68;;
24383;SDS011;12504;52.870;8.798;2023-08-24T00:39:06;5.50;;;3.30;;
24383;SDS011;12504;52.870;8.798;2023-08-24T00:41:31;5.72;;;3.67;;
24383;SDS011;12504;52.870;8.798;2023-08-24T00:43:57;6.00;;;3.13;;
24383;SDS011;12504;52.870;8.798;2023-08-24T00:46:23;4.55;;;3.85;;
24383;SDS011;12504;52.870;8.798;2023-08-24T00:48:52;5.80;;;4.00;;
24383;SDS011;12504;52.870;8.798;2023-08-24T00:51:22;6.40;;;3.85;;
24383;SDS011;12504;52.870;8.798;2023-08-24T00:53:49;6.80;;;4.00;;
24383;SDS011;12504;52.870;8.798;2023-08-24T00:56:16;6.85;;;3.60;;
24383;SDS011;12504;52.870;8.798;2023-08-24T00:58:42;6.03;;;3.67;;
24383;SDS011;12504;52.870;8.798;2023-08-24T01:01:11;11.73;;;3.47;;
24383;SDS011;12504;52.870;8.798;2023-08-24T01:03:39;5.85;;;3.53;;
24383;SDS011;12504;52.870;8.798;2023-08-24T01:06:05;5.30;;;3.33;;
24383;SDS011;12504;52.870;8.798;2023-08-24T01:08:30;4.53;;;3.28;;
24383;SDS011;12504;52.870;8.798;2023-08-24T01:16:25;7.90;;;4.55;;
24383;SDS011;12504;52.870;8.798;2023-08-24T01:18:55;7.10;;;3.97;;
24383;SDS011;12504;52.870;8.798;2023-08-24T01:21:22;7.82;;;4.65;;
24383;SDS011;12504;52.870;8.798;2023-08-24T01:23:53;5.63;;;3.83;;
24383;SDS011;12504;52.870;8.798;2023-08-24T01:26:39;6.38;;;4.57;;
24383;SDS011;12504;52.870;8.798;2023-08-24T01:29:06;9.30;;;5.55;;
24383;SDS011;12504;52.870;8.798;2023-08-24T01:31:33;6.95;;;4.57;;
24383;SDS011;12504;52.870;8.798;2023-08-24T01:33:58;7.18;;;4.32;;
24383;SDS011;12504;52.870;8.798;2023-08-24T01:36:25;10.98;;;5.18;;
24383;SDS011;12504;52.870;8.798;2023-08-24T01:38:58;5.65;;;4.65;;
24383;SDS011;12504;52.870;8.798;2023-08-24T01:41:33;5.47;;;4.40;;
24383;SDS011;12504;52.870;8.798;2023-08-24T01:44:03;5.57;;;4.13;;
24383;SDS011;12504;52.870;8.798;2023-08-24T01:46:32;8.45;;;3.85;;
24383;SDS011;12504;52.870;8.798;2023-08-24T01:48:59;7.55;;;4.72;;
24383;SDS011;12504;52.870;8.798;2023-08-24T01:51:25;5.10;;;3.95;;
24383;SDS011;12504;52.870;8.798;2023-08-24T01:53:52;6.07;;;4.38;;
24383;SDS011;12504;52.870;8.798;2023-08-24T01:56:18;7.60;;;4.43;;
24383;SDS011;12504;52.870;8.798;2023-08-24T01:58:45;8.32;;;5.40;;
24383;SDS011;12504;52.870;8.798;2023-08-24T02:01:11;5.75;;;4.43;;
24383;SDS011;12504;52.870;8.798;2023-08-24T02:03:38;8.57;;;4.88;;
24383;SDS011;12504;52.870;8.798;2023-08-24T02:06:07;8.45;;;6.03;;
24383;SDS011;12504;52.870;8.798;2023-08-24T02:08:33;6.40;;;4.30;;
24383;SDS011;12504;52.870;8.798;2023-08-24T02:10:58;7.43;;;4.88;;
24383;SDS011;12504;52.870;8.798;2023-08-24T02:13:24;6.97;;;5.07;;
24383;SDS011;12504;52.870;8.798;2023-08-24T02:15:50;9.30;;;5.63;;
24383;SDS011;12504;52.870;8.798;2023-08-24T02:18:16;9.70;;;5.63;;
24383;SDS011;12504;52.870;8.798;2023-08-24T02:20:41;9.18;;;5.15;;
24383;SDS011;12504;52.870;8.798;2023-08-24T02:23:07;8.18;;;4.95;;
24383;SDS011;12504;52.870;8.798;2023-08-24T02:25:33;12.90;;;6.25;;
24383;SDS011;12504;52.870;8.798;2023-08-24T02:27:58;7.90;;;4.72;;
24383;SDS011;12504;52.870;8.798;2023-08-24T02:30:25;8.18;;;4.72;;
24383;SDS011;12504;52.870;8.798;2023-08-24T02:32:51;11.77;;;6.20;;
24383;SDS011;12504;52.870;8.798;2023-08-24T02:35:17;7.93;;;5.00;;
24383;SDS011;12504;52.870;8.798;2023-08-24T02:37:43;5.93;;;4.32;;
24383;SDS011;12504;52.870;8.798;2023-08-24T02:40:11;6.03;;;4.93;;
24383;SDS011;12504;52.870;8.798;2023-08-24T02:42:36;7.45;;;4.78;;
24383;SDS011;12504;52.870;8.798;2023-08-24T02:45:03;7.30;;;4.18;;
24383;SDS011;12504;52.870;8.798;2023-08-24T02:47:29;9.23;;;4.82;;
24383;SDS011;12504;52.870;8.798;2023-08-24T02:49:55;8.43;;;5.03;;
24383;SDS011;12504;52.870;8.798;2023-08-24T02:52:20;5.32;;;4.47;;
24383;SDS011;12504;52.870;8.798;2023-08-24T02:54:46;6.13;;;4.75;;
24383;SDS011;12504;52.870;8.798;2023-08-24T02:57:12;5.55;;;4.18;;
24383;SDS011;12504;52.870;8.798;2023-08-24T02:59:39;5.75;;;4.35;;
24383;SDS011;12504;52.870;8.798;2023-08-24T03:02:07;9.40;;;5.43;;
24383;SDS011;12504;52.870;8.798;2023-08-24T03:04:33;8.68;;;6.15;;
24383;SDS011;12504;52.870;8.798;2023-08-24T03:06:58;8.98;;;6.18;;
24383;SDS011;12504;52.870;8.798;2023-08-24T03:09:24;6.90;;;4.28;;
24383;SDS011;12504;52.870;8.798;2023-08-24T03:11:50;8.90;;;5.97;;
24383;SDS011;12504;52.870;8.798;2023-08-24T03:14:15;8.02;;;6.13;;
24383;SDS011;12504;52.870;8.798;2023-08-24T03:16:44;7.85;;;5.22;;
24383;SDS011;12504;52.870;8.798;2023-08-24T03:19:09;7.88;;;5.65;;
24383;SDS011;12504;52.870;8.798;2023-08-24T03:21:36;10.30;;;6.20;;
24383;SDS011;12504;52.870;8.798;2023-08-24T03:24:02;10.25;;;6.72;;
24383;SDS011;12504;52.870;8.798;2023-08-24T03:26:30;7.72;;;5.90;;
24383;SDS011;12504;52.870;8.798;2023-08-24T03:28:55;7.45;;;5.78;;
24383;SDS011;12504;52.870;8.798;2023-08-24T03:31:22;11.93;;;5.80;;
24383;SDS011;12504;52.870;8.798;2023-08-24T03:33:50;9.90;;;4.82;;
24383;SDS011;12504;52.870;8.798;2023-08-24T03:36:15;10.63;;;5.90;;
24383;SDS011;12504;52.870;8.798;2023-08-24T03:38:44;14.48;;;5.72;;
24383;SDS011;12504;52.870;8.798;2023-08-24T03:41:10;9.18;;;5.25;;
24383;SDS011;12504;52.870;8.798;2023-08-24T03:43:36;7.38;;;4.97;;
24383;SDS011;12504;52.870;8.798;2023-08-24T03:46:02;9.07;;;5.05;;
24383;SDS011;12504;52.870;8.798;2023-08-24T03:48:32;7.13;;;5.35;;
24383;SDS011;12504;52.870;8.798;2023-08-24T03:50:58;7.13;;;5.30;;
24383;SDS011;12504;52.870;8.798;2023-08-24T03:53:24;7.53;;;4.78;;
24383;SDS011;12504;52.870;8.798;2023-08-24T03:55:53;9.32;;;5.93;;
24383;SDS011;12504;52.870;8.798;2023-08-24T03:58:20;9.57;;;4.63;;
24383;SDS011;12504;52.870;8.798;2023-08-24T04:00:46;6.30;;;4.55;;
24383;SDS011;12504;52.870;8.798;2023-08-24T04:03:12;14.50;;;5.63;;
24383;SDS011;12504;52.870;8.798;2023-08-24T04:05:38;8.35;;;5.65;;
24383;SDS011;12504;52.870;8.798;2023-08-24T04:08:04;6.38;;;4.45;;
24383;SDS011;12504;52.870;8.798;2023-08-24T04:10:30;10.57;;;5.65;;
24383;SDS011;12504;52.870;8.798;2023-08-24T04:12:57;7.88;;;5.35;;
24383;SDS011;12504;52.870;8.798;2023-08-24T04:15:23;6.95;;;5.40;;
24383;SDS011;12504;52.870;8.798;2023-08-24T04:17:49;9.93;;;5.45;;
24383;SDS011;12504;52.870;8.798;2023-08-24T04:20:14;14.15;;;5.38;;
24383;SDS011;12504;52.870;8.798;2023-08-24T04:22:41;9.18;;;5.10;;
24383;SDS011;12504;52.870;8.798;2023-08-24T04:25:07;10.70;;;5.45;;
24383;SDS011;12504;52.870;8.798;2023-08-24T04:27:33;7.03;;;5.20;;
24383;SDS011;12504;52.870;8.798;2023-08-24T04:29:59;11.30;;;5.80;;
24383;SDS011;12504;52.870;8.798;2023-08-24T04:32:25;10.65;;;6.22;;
24383;SDS011;12504;52.870;8.798;2023-08-24T04:34:52;10.73;;;6.90;;
24383;SDS011;12504;52.870;8.798;2023-08-24T04:37:18;19.15;;;7.63;;
24383;SDS011;12504;52.870;8.798;2023-08-24T04:39:44;12.68;;;7.28;;
24383;SDS011;12504;52.870;8.798;2023-08-24T04:42:09;11.63;;;6.72;;
24383;SDS011;12504;52.870;8.798;2023-08-24T04:44:35;12.30;;;6.53;;
24383;SDS011;12504;52.870;8.798;2023-08-24T04:47:00;13.38;;;7.25;;
24383;SDS011;12504;52.870;8.798;2023-08-24T04:49:26;12.60;;;7.40;;
24383;SDS011;12504;52.870;8.798;2023-08-24T04:51:53;10.40;;;7.60;;
24383;SDS011;12504;52.870;8.798;2023-08-24T04:54:19;13.50;;;7.97;;
24383;SDS011;12504;52.870;8.798;2023-08-24T04:56:45;13.13;;;7.90;;
24383;SDS011;12504;52.870;8.798;2023-08-24T04:59:10;16.88;;;8.60;;
24383;SDS011;12504;52.870;8.798;2023-08-24T05:01:36;17.23;;;8.52;;
24383;SDS011;12504;52.870;8.798;2023-08-24T05:04:02;16.40;;;8.70;;
24383;SDS011;12504;52.870;8.798;2023-08-24T05:06:28;16.08;;;8.65;;
24383;SDS011;12504;52.870;8.798;2023-08-24T05:08:54;12.60;;;8.27;;
24383;SDS011;12504;52.870;8.798;2023-08-24T05:11:21;14.10;;;8.30;;
24383;SDS011;12504;52.870;8.798;2023-08-24T05:13:49;16.23;;;8.20;;
24383;SDS011;12504;52.870;8.798;2023-08-24T05:16:15;14.88;;;9.88;;
24383;SDS011;12504;52.870;8.798;2023-08-24T05:18:41;16.90;;;10.07;;
24383;SDS011;12504;52.870;8.798;2023-08-24T05:21:08;17.23;;;11.13;;
24383;SDS011;12504;52.870;8.798;2023-08-24T05:23:34;18.60;;;11.55;;
24383;SDS011;12504;52.870;8.798;2023-08-24T05:26:01;19.33;;;10.75;;
24383;SDS011;12504;52.870;8.798;2023-08-24T05:28:28;22.35;;;12.02;;
24383;SDS011;12504;52.870;8.798;2023-08-24T05:30:55;23.85;;;11.52;;
24383;SDS011;12504;52.870;8.798;2023-08-24T05:33:21;19.30;;;10.48;;
24383;SDS011;12504;52.870;8.798;2023-08-24T05:35:49;17.55;;;9.23;;
24383;SDS011;12504;52.870;8.798;2023-08-24T05:38:15;19.77;;;10.20;;
24383;SDS011;12504;52.870;8.798;2023-08-24T05:40:48;16.98;;;10.18;;
24383;SDS011;12504;52.870;8.798;2023-08-24T05:43:14;16.20;;;8.65;;
24383;SDS011;12504;52.870;8.798;2023-08-24T05:45:40;15.00;;;8.32;;
24383;SDS011;12504;52.870;8.798;2023-08-24T05:48:09;11.98;;;8.30;;
24383;SDS011;12504;52.870;8.798;2023-08-24T05:50:35;10.27;;;6.82;;
24383;SDS011;12504;52.870;8.798;2023-08-24T05:53:02;11.65;;;6.53;;
24383;SDS011;12504;52.870;8.798;2023-08-24T05:55:29;14.35;;;7.43;;
24383;SDS011;12504;52.870;8.798;2023-08-24T05:57:55;13.05;;;6.85;;
24383;SDS011;12504;52.870;8.798;2023-08-24T06:00:21;14.70;;;7.00;;
24383;SDS011;12504;52.870;8.798;2023-08-24T06:02:47;8.05;;;6.28;;
24383;SDS011;12504;52.870;8.798;2023-08-24T06:05:13;12.30;;;6.68;;
24383;SDS011;12504;52.870;8.798;2023-08-24T06:07:39;13.35;;;7.38;;
24383;SDS011;12504;52.870;8.798;2023-08-24T06:10:04;13.23;;;8.80;;
24383;SDS011;12504;52.870;8.798;2023-08-24T06:12:30;15.98;;;7.68;;
24383;SDS011;12504;52.870;8.798;2023-08-24T06:14:56;16.35;;;9.10;;
24383;SDS011;12504;52.870;8.798;2023-08-24T06:17:22;14.25;;;9.20;;
24383;SDS011;12504;52.870;8.798;2023-08-24T06:19:47;12.15;;;8.02;;
24383;SDS011;12504;52.870;8.798;2023-08-24T06:22:13;14.45;;;8.20;;
24383;SDS011;12504;52.870;8.798;2023-08-24T06:24:39;14.32;;;9.70;;
24383;SDS011;12504;52.870;8.798;2023-08-24T06:27:04;14.05;;;8.93;;
24383;SDS011;12504;52.870;8.798;2023-08-24T06:29:30;16.92;;;9.45;;
24383;SDS011;12504;52.870;8.798;2023-08-24T06:31:55;16.83;;;10.20;;
24383;SDS011;12504;52.870;8.798;2023-08-24T06:34:21;15.15;;;8.80;;
24383;SDS011;12504;52.870;8.798;2023-08-24T06:36:53;17.73;;;10.25;;
24383;SDS011;12504;52.870;8.798;2023-08-24T06:39:19;15.00;;;9.63;;
24383;SDS011;12504;52.870;8.798;2023-08-24T06:41:44;17.90;;;10.18;;
24383;SDS011;12504;52.870;8.798;2023-08-24T06:44:10;20.52;;;9.70;;
24383;SDS011;12504;52.870;8.798;2023-08-24T06:46:36;16.15;;;10.30;;
24383;SDS011;12504;52.870;8.798;2023-08-24T06:49:02;14.38;;;9.18;;
24383;SDS011;12504;52.870;8.798;2023-08-24T06:51:28;18.35;;;10.00;;
24383;SDS011;12504;52.870;8.798;2023-08-24T06:53:54;14.38;;;9.90;;
24383;SDS011;12504;52.870;8.798;2023-08-24T06:56:20;20.15;;;10.60;;
24383;SDS011;12504;52.870;8.798;2023-08-24T06:58:47;19.65;;;10.90;;
24383;SDS011;12504;52.870;8.798;2023-08-24T07:01:13;17.63;;;11.27;;
24383;SDS011;12504;52.870;8.798;2023-08-24T07:03:39;22.25;;;12.05;;
24383;SDS011;12504;52.870;8.798;2023-08-24T07:06:05;21.45;;;12.13;;
24383;SDS011;12504;52.870;8.798;2023-08-24T07:08:32;24.95;;;11.48;;
24383;SDS011;12504;52.870;8.798;2023-08-24T07:10:58;23.92;;;12.57;;
24383;SDS011;12504;52.870;8.798;2023-08-24T07:13:24;23.48;;;13.95;;
24383;SDS011;12504;52.870;8.798;2023-08-24T07:15:51;31.20;;;13.15;;
24383;SDS011;12504;52.870;8.798;2023-08-24T07:18:17;30.13;;;14.98;;
24383;SDS011;12504;52.870;8.798;2023-08-24T07:20:42;22.67;;;14.00;;
24383;SDS011;12504;52.870;8.798;2023-08-24T07:23:08;23.92;;;13.95;;
24383;SDS011;12504;52.870;8.798;2023-08-24T07:25:34;26.83;;;13.60;;
24383;SDS011;12504;52.870;8.798;2023-08-24T07:28:00;23.70;;;15.40;;
24383;SDS011;12504;52.870;8.798;2023-08-24T07:30:28;25.83;;;14.35;;
24383;SDS011;12504;52.870;8.798;2023-08-24T07:32:54;22.40;;;14.00;;
24383;SDS011;12504;52.870;8.798;2023-08-24T07:35:20;24.10;;;14.13;;
24383;SDS011;12504;52.870;8.798;2023-08-24T07:37:47;27.60;;;15.07;;
24383;SDS011;12504;52.870;8.798;2023-08-24T07:40:13;30.88;;;16.00;;
24383;SDS011;12504;52.870;8.798;2023-08-24T07:42:43;27.17;;;14.60;;
24383;SDS011;12504;52.870;8.798;2023-08-24T07:45:18;25.55;;;14.80;;
24383;SDS011;12504;52.870;8.798;2023-08-24T07:47:44;29.33;;;13.48;;
24383;SDS011;12504;52.870;8.798;2023-08-24T07:50:10;26.70;;;14.05;;
24383;SDS011;12504;52.870;8.798;2023-08-24T07:52:39;25.33;;;16.52;;
24383;SDS011;12504;52.870;8.798;2023-08-24T07:55:06;23.85;;;14.15;;
24383;SDS011;12504;52.870;8.798;2023-08-24T07:57:36;25.77;;;14.15;;
24383;SDS011;12504;52.870;8.798;2023-08-24T08:00:05;27.88;;;14.02;;
24383;SDS011;12504;52.870;8.798;2023-08-24T08:02:39;23.65;;;14.50;;
24383;SDS011;12504;52.870;8.798;2023-08-24T08:05:05;32.78;;;15.45;;
24383;SDS011;12504;52.870;8.798;2023-08-24T08:07:35;26.23;;;15.05;;
24383;SDS011;12504;52.870;8.798;2023-08-24T08:10:01;21.23;;;12.98;;
24383;SDS011;12504;52.870;8.798;2023-08-24T08:12:27;21.23;;;13.02;;
24383;SDS011;12504;52.870;8.798;2023-08-24T08:14:52;23.52;;;13.60;;
24383;SDS011;12504;52.870;8.798;2023-08-24T08:17:18;22.23;;;13.18;;
24383;SDS011;12504;52.870;8.798;2023-08-24T08:19:44;22.13;;;12.20;;
24383;SDS011;12504;52.870;8.798;2023-08-24T08:22:12;27.25;;;12.15;;
24383;SDS011;12504;52.870;8.798;2023-08-24T08:24:37;20.95;;;11.38;;
24383;SDS011;12504;52.870;8.798;2023-08-24T08:27:03;22.08;;;12.32;;
24383;SDS011;12504;52.870;8.798;2023-08-24T08:29:29;17.98;;;10.73;;
24383;SDS011;12504;52.870;8.798;2023-08-24T08:31:54;17.45;;;9.93;;
24383;SDS011;12504;52.870;8.798;2023-08-24T08:34:20;17.35;;;10.23;;
24383;SDS011;12504;52.870;8.798;2023-08-24T08:36:46;17.38;;;10.85;;
24383;SDS011;12504;52.870;8.798;2023-08-24T08:39:11;17.17;;;10.05;;
24383;SDS011;12504;52.870;8.798;2023-08-24T08:41:41;15.48;;;8.27;;
24383;SDS011;12504;52.870;8.798;2023-08-24T08:44:08;11.63;;;7.97;;
24383;SDS011;12504;52.870;8.798;2023-08-24T08:46:36;16.17;;;9.57;;
24383;SDS011;12504;52.870;8.798;2023-08-24T08:49:04;14.07;;;8.68;;
24383;SDS011;12504;52.870;8.798;2023-08-24T08:51:33;13.23;;;7.60;;
24383;SDS011;12504;52.870;8.798;2023-08-24T08:54:01;13.52;;;7.45;;
24383;SDS011;12504;52.870;8.798;2023-08-24T08:56:28;12.95;;;7.72;;
24383;SDS011;12504;52.870;8.798;2023-08-24T08:58:55;17.77;;;7.50;;
24383;SDS011;12504;52.870;8.798;2023-08-24T09:01:24;12.80;;;7.60;;
24383;SDS011;12504;52.870;8.798;2023-08-24T09:03:50;9.38;;;6.60;;
24383;SDS011;12504;52.870;8.798;2023-08-24T09:06:17;10.70;;;6.53;;
24383;SDS011;12504;52.870;8.798;2023-08-24T09:08:43;7.30;;;4.50;;
24383;SDS011;12504;52.870;8.798;2023-08-24T09:11:09;6.28;;;4.50;;
24383;SDS011;12504;52.870;8.798;2023-08-24T09:13:35;8.65;;;4.55;;
24383;SDS011;12504;52.870;8.798;2023-08-24T09:16:07;7.00;;;4.07;;
24383;SDS011;12504;52.870;8.798;2023-08-24T09:18:37;7.55;;;3.63;;
24383;SDS011;12504;52.870;8.798;2023-08-24T09:21:10;6.15;;;4.60;;
24383;SDS011;12504;52.870;8.798;2023-08-24T09:23:38;6.40;;;4.50;;
24383;SDS011;12504;52.870;8.798;2023-08-24T09:26:26;9.43;;;4.78;;
24383;SDS011;12504;52.870;8.798;2023-08-24T09:31:38;8.75;;;4.22;;
24383;SDS011;12504;52.870;8.798;2023-08-24T09:34:05;8.23;;;4.60;;
24383;SDS011;12504;52.870;8.798;2023-08-24T09:36:34;10.88;;;4.97;;
24383;SDS011;12504;52.870;8.798;2023-08-24T09:39:02;8.30;;;5.35;;
24383;SDS011;12504;52.870;8.798;2023-08-24T09:41:44;6.93;;;4.22;;
24383;SDS011;12504;52.870;8.798;2023-08-24T09:44:11;11.27;;;4.60;;
24383;SDS011;12504;52.870;8.798;2023-08-24T09:46:37;11.10;;;5.22;;
24383;SDS011;12504;52.870;8.798;2023-08-24T09:49:08;7.80;;;6.10;;
24383;SDS011;12504;52.870;8.798;2023-08-24T09:51:35;7.05;;;4.55;;
24383;SDS011;12504;52.870;8.798;2023-08-24T09:54:04;13.90;;;5.13;;
24383;SDS011;12504;52.870;8.798;2023-08-24T09:56:31;10.07;;;5.30;;
24383;SDS011;12504;52.870;8.798;2023-08-24T09:59:00;9.73;;;6.03;;
24383;SDS011;12504;52.870;8.798;2023-08-24T10:01:42;7.75;;;4.78;;
24383;SDS011;12504;52.870;8.798;2023-08-24T10:06:37;10.43;;;5.10;;
24383;SDS011;12504;52.870;8.798;2023-08-24T10:09:06;9.85;;;4.22;;
24383;SDS011;12504;52.870;8.798;2023-08-24T10:11:34;10.63;;;5.35;;
24383;SDS011;12504;52.870;8.798;2023-08-24T10:14:09;6.32;;;4.32;;
24383;SDS011;12504;52.870;8.798;2023-08-24T10:16:40;6.95;;;4.85;;
24383;SDS011;12504;52.870;8.798;2023-08-24T10:19:08;10.65;;;4.55;;
24383;SDS011;12504;52.870;8.798;2023-08-24T10:21:34;4.95;;;3.90;;
24383;SDS011;12504;52.870;8.798;2023-08-24T10:24:02;5.93;;;3.30;;
24383;SDS011;12504;52.870;8.798;2023-08-24T10:26:28;9.05;;;4.68;;
24383;SDS011;12504;52.870;8.798;2023-08-24T10:28:54;6.60;;;4.68;;
24383;SDS011;12504;52.870;8.798;2023-08-24T10:31:21;10.30;;;5.55;;
24383;SDS011;12504;52.870;8.798;2023-08-24T10:33:47;7.97;;;4.63;;
24383;SDS011;12504;52.870;8.798;2023-08-24T10:36:15;5.78;;;4.22;;
24383;SDS011;12504;52.870;8.798;2023-08-24T10:38:43;10.50;;;4.00;;
24383;SDS011;12504;52.870;8.798;2023-08-24T10:41:09;6.88;;;4.13;;
24383;SDS011;12504;52.870;8.798;2023-08-24T10:43:39;7.82;;;4.03;;
24383;SDS011;12504;52.870;8.798;2023-08-24T10:46:12;8.80;;;4.57;;
24383;SDS011;12504;52.870;8.798;2023-08-24T10:53:58;6.75;;;3.40;;
24383;SDS011;12504;52.870;8.798;2023-08-24T10:56:29;8.02;;;3.22;;
24383;SDS011;12504;52.870;8.798;2023-08-24T10:59:12;6.72;;;3.08;;
24383;SDS011;12504;52.870;8.798;2023-08-24T11:01:42;4.13;;;3.33;;
24383;SDS011;12504;52.870;8.798;2023-08-24T11:04:19;4.00;;;3.58;;
24383;SDS011;12504;52.870;8.798;2023-08-24T11:06:52;4.32;;;3.50;;
24383;SDS011;12504;52.870;8.798;2023-08-24T11:09:18;9.23;;;3.67;;
24383;SDS011;12504;52.870;8.798;2023-08-24T11:11:54;7.55;;;2.95;;
24383;SDS011;12504;52.870;8.798;2023-08-24T11:14:22;6.63;;;3.55;;
24383;SDS011;12504;52.870;8.798;2023-08-24T11:16:51;8.13;;;3.47;;
24383;SDS011;12504;52.870;8.798;2023-08-24T11:19:18;6.43;;;3.20;;
24383;SDS011;12504;52.870;8.798;2023-08-24T11:21:44;7.93;;;3.78;;
24383;SDS011;12504;52.870;8.798;2023-08-24T11:24:13;6.65;;;4.50;;
24383;SDS011;12504;52.870;8.798;2023-08-24T11:26:41;5.25;;;2.97;;
24383;SDS011;12504;52.870;8.798;2023-08-24T11:29:11;10.65;;;3.97;;
24383;SDS011;12504;52.870;8.798;2023-08-24T11:31:37;6.00;;;2.85;;
24383;SDS011;12504;52.870;8.798;2023-08-24T11:34:04;7.13;;;3.00;;
24383;SDS011;12504;52.870;8.798;2023-08-24T11:36:30;14.82;;;3.35;;
24383;SDS011;12504;52.870;8.798;2023-08-24T11:38:58;6.68;;;3.40;;
24383;SDS011;12504;52.870;8.798;2023-08-24T11:41:24;6.03;;;3.10;;
24383;SDS011;12504;52.870;8.798;2023-08-24T11:43:57;3.67;;;2.60;;
24383;SDS011;12504;52.870;8.798;2023-08-24T11:46:24;4.20;;;2.75;;
24383;SDS011;12504;52.870;8.798;2023-08-24T11:48:50;4.45;;;2.55;;
24383;SDS011;12504;52.870;8.798;2023-08-24T11:51:16;6.03;;;3.30;;
24383;SDS011;12504;52.870;8.798;2023-08-24T11:53:42;5.10;;;2.42;;
24383;SDS011;12504;52.870;8.798;2023-08-24T11:56:10;5.22;;;2.50;;
24383;SDS011;12504;52.870;8.798;2023-08-24T11:58:40;8.75;;;2.78;;
24383;SDS011;12504;52.870;8.798;2023-08-24T12:03:39;6.53;;;2.45;;
24383;SDS011;12504;52.870;8.798;2023-08-24T12:08:39;5.10;;;2.22;;
24383;SDS011;12504;52.870;8.798;2023-08-24T12:11:19;3.85;;;2.13;;
24383;SDS011;12504;52.870;8.798;2023-08-24T12:13:49;5.78;;;2.38;;
24383;SDS011;12504;52.870;8.798;2023-08-24T12:16:19;2.92;;;2.45;;
24383;SDS011;12504;52.870;8.798;2023-08-24T12:18:46;3.10;;;2.13;;
24383;SDS011;12504;52.870;8.798;2023-08-24T12:21:20;4.78;;;3.05;;
24383;SDS011;12504;52.870;8.798;2023-08-24T12:24:00;6.25;;;3.13;;
24383;SDS011;12504;52.870;8.798;2023-08-24T12:26:30;6.25;;;2.88;;
24383;SDS011;12504;52.870;8.798;2023-08-24T12:29:00;5.95;;;2.80;;
24383;SDS011;12504;52.870;8.798;2023-08-24T12:31:30;3.50;;;2.28;;
24383;SDS011;12504;52.870;8.798;2023-08-24T12:34:03;3.58;;;2.20;;
24383;SDS011;12504;52.870;8.798;2023-08-24T12:36:33;3.45;;;2.42;;
24383;SDS011;12504;52.870;8.798;2023-08-24T12:39:01;3.90;;;2.00;;
24383;SDS011;12504;52.870;8.798;2023-08-24T12:41:29;4.78;;;2.15;;
24383;SDS011;12504;52.870;8.798;2023-08-24T12:43:55;3.78;;;2.13;;
24383;SDS011;12504;52.870;8.798;2023-08-24T12:46:21;5.60;;;3.33;;
24383;SDS011;12504;52.870;8.798;2023-08-24T12:48:47;3.85;;;2.15;;
24383;SDS011;12504;52.870;8.798;2023-08-24T12:51:13;3.70;;;2.40;;
24383;SDS011;12504;52.870;8.798;2023-08-24T12:53:38;3.85;;;2.35;;
24383;SDS011;12504;52.870;8.798;2023-08-24T12:56:04;4.03;;;2.15;;
24383;SDS011;12504;52.870;8.798;2023-08-24T12:58:30;6.05;;;2.03;;
24383;SDS011;12504;52.870;8.798;2023-08-24T13:00:56;3.05;;;2.05;;
24383;SDS011;12504;52.870;8.798;2023-08-24T13:03:22;5.50;;;2.95;;
24383;SDS011;12504;52.870;8.798;2023-08-24T13:05:47;3.22;;;2.45;;
24383;SDS011;12504;52.870;8.798;2023-08-24T13:08:13;4.28;;;1.90;;
24383;SDS011;12504;52.870;8.798;2023-08-24T13:10:39;2.53;;;1.75;;
24383;SDS011;12504;52.870;8.798;2023-08-24T13:13:05;4.82;;;2.47;;
24383;SDS011;12504;52.870;8.798;2023-08-24T13:15:30;4.72;;;2.67;;
24383;SDS011;12504;52.870;8.798;2023-08-24T13:17:56;4.90;;;2.45;;
24383;SDS011;12504;52.870;8.798;2023-08-24T13:20:23;2.92;;;2.00;;
24383;SDS011;12504;52.870;8.798;2023-08-24T13:22:49;3.70;;;2.53;;
24383;SDS011;12504;52.870;8.798;2023-08-24T13:25:15;5.07;;;1.80;;
24383;SDS011;12504;52.870;8.798;2023-08-24T13:27:40;3.05;;;2.13;;
24383;SDS011;12504;52.870;8.798;2023-08-24T13:30:06;5.45;;;2.05;;
24383;SDS011;12504;52.870;8.798;2023-08-24T13:32:33;3.70;;;2.22;;
24383;SDS011;12504;52.870;8.798;2023-08-24T13:35:00;3.40;;;2.30;;
24383;SDS011;12504;52.870;8.798;2023-08-24T13:37:26;3.90;;;2.25;;
24383;SDS011;12504;52.870;8.798;2023-08-24T13:39:51;3.03;;;2.30;;
24383;SDS011;12504;52.870;8.798;2023-08-24T13:42:17;6.78;;;2.67;;
24383;SDS011;12504;52.870;8.798;2023-08-24T13:44:44;3.63;;;2.25;;
24383;SDS011;12504;52.870;8.798;2023-08-24T13:47:11;3.05;;;2.25;;
24383;SDS011;12504;52.870;8.798;2023-08-24T13:49:36;2.92;;;2.10;;
24383;SDS011;12504;52.870;8.798;2023-08-24T13:52:02;5.43;;;2.58;;
24383;SDS011;12504;52.870;8.798;2023-08-24T13:54:29;5.35;;;2.70;;
24383;SDS011;12504;52.870;8.798;2023-08-24T13:56:55;3.97;;;2.03;;
24383;SDS011;12504;52.870;8.798;2023-08-24T13:59:21;3.63;;;2.35;;
24383;SDS011;12504;52.870;8.798;2023-08-24T14:01:47;5.35;;;2.55;;
24383;SDS011;12504;52.870;8.798;2023-08-24T14:04:13;3.53;;;2.35;;
24383;SDS011;12504;52.870;8.798;2023-08-24T14:06:39;4.80;;;2.85;;
24383;SDS011;12504;52.870;8.798;2023-08-24T14:09:05;3.78;;;2.42;;
24383;SDS011;12504;52.870;8.798;2023-08-24T14:11:31;4.45;;;2.58;;
24383;SDS011;12504;52.870;8.798;2023-08-24T14:13:58;2.95;;;2.03;;
24383;SDS011;12504;52.870;8.798;2023-08-24T14:16:24;5.32;;;2.50;;
24383;SDS011;12504;52.870;8.798;2023-08-24T14:18:51;3.50;;;2.75;;
24383;SDS011;12504;52.870;8.798;2023-08-24T14:21:17;4.00;;;2.58;;
24383;SDS011;12504;52.870;8.798;2023-08-24T14:23:43;4.47;;;2.47;;
24383;SDS011;12504;52.870;8.798;2023-08-24T14:26:09;5.78;;;2.88;;
24383;SDS011;12504;52.870;8.798;2023-08-24T14:31:16;5.40;;;2.92;;
24383;SDS011;12504;52.870;8.798;2023-08-24T14:33:42;6.57;;;3.35;;
24383;SDS011;12504;52.870;8.798;2023-08-24T14:36:09;6.60;;;3.63;;
24383;SDS011;12504;52.870;8.798;2023-08-24T14:38:35;3.67;;;2.75;;
24383;SDS011;12504;52.870;8.798;2023-08-24T14:41:03;4.93;;;3.03;;
24383;SDS011;12504;52.870;8.798;2023-08-24T14:43:29;3.97;;;3.08;;
24383;SDS011;12504;52.870;8.798;2023-08-24T14:45:54;4.55;;;3.13;;
24383;SDS011;12504;52.870;8.798;2023-08-24T14:48:20;4.60;;;3.40;;
24383;SDS011;12504;52.870;8.798;2023-08-24T14:50:46;6.38;;;3.72;;
24383;SDS011;12504;52.870;8.798;2023-08-24T14:53:11;5.32;;;3.35;;
24383;SDS011;12504;52.870;8.798;2023-08-24T14:55:38;7.43;;;4.40;;
24383;SDS011;12504;52.870;8.798;2023-08-24T14:58:04;5.72;;;3.42;;
24383;SDS011;12504;52.870;8.798;2023-08-24T15:00:29;5.82;;;4.32;;
24383;SDS011;12504;52.870;8.798;2023-08-24T15:02:55;4.93;;;4.10;;